KMQE

East Milton Airport

Massachusetts, USA
METAR KMQE 171556Z AUTO 15003KT 27/21 A3008 RMK AO1 SLP191 T02720206
Observed Flight Rules
Aug-17 @ 15:56 UTC (56 minutes ago)
Wind
150° at 3 knots
Temperatures Readings
Current 27°C / 81°F
Dewpoint 21°C / 70°F
Humidity 70%
Altimeter 30.08" Hg
Pressure 1019.1 hPa
Elevation 199
METAR KMQE 171556Z AUTO 15003KT 27/21 A3008 RMK AO1 SLP191 T02720206
Observed Flight Rules
Aug-17 @ 15:56 UTC
(56 minutes ago)
Wind
150° at 3 knots
Temperature Dewpoint
27°C / 81°F 21°C / 70°F
Humidity Altimeter Pressure
70% 30.08" Hg 1019.1 hPa